Time;durP1;ratioP1;P1;durP2;ratioP2;P2;SDS_P1;SDS_P2;PMS_P1;PMS_P2;Temp;Humidity;BMP_temperature;BMP_pressure;BME280_temperature;BME280_humidity;BME280_pressure;Samples;Min_cycle;Max_cycle;Signal;HPM_P1;HPM_P2
2023/08/15 00:00:44;;;;;;;8.45;4.30;;;24.30;82.60;;;;;;5031760;28;20052;-79
2023/08/15 00:03:12;;;;;;;9.23;4.57;;;24.30;82.80;;;;;;5052343;28;20040;-80
2023/08/15 00:08:32;;;;;;;12.20;4.88;;;24.60;83.30;;;;;;5045918;28;20052;-80
2023/08/15 00:10:59;;;;;;;10.20;5.50;;;24.60;84.10;;;;;;5035911;28;20056;-80
2023/08/15 00:13:27;;;;;;;9.68;5.60;;;24.60;84.50;;;;;;5047024;28;20059;-80
2023/08/15 00:15:59;;;;;;;13.07;6.95;;;24.50;85.60;;;;;;5057689;28;20037;-80
2023/08/15 00:18:27;;;;;;;12.38;5.75;;;24.60;86.30;;;;;;5039649;28;20049;-80
2023/08/15 00:20:55;;;;;;;12.00;5.40;;;24.50;86.20;;;;;;5038603;28;20131;-79
2023/08/15 00:23:22;;;;;;;8.57;5.40;;;24.60;85.90;;;;;;5053847;28;20043;-82
2023/08/15 00:25:54;;;;;;;10.13;5.28;;;24.60;86.30;;;;;;5053201;28;20041;-80
2023/08/15 00:28:39;;;;;;;10.55;5.22;;;24.50;86.20;;;;;;5033248;28;20076;-78
2023/08/15 00:31:07;;;;;;;7.65;4.72;;;24.30;85.30;;;;;;5052963;28;20051;-78
2023/08/15 00:33:36;;;;;;;6.70;4.85;;;24.20;85.10;;;;;;5043820;28;20083;-80
2023/08/15 00:36:04;;;;;;;10.13;5.45;;;23.90;86.00;;;;;;5039458;28;20049;-78
2023/08/15 00:38:33;;;;;;;9.73;5.15;;;23.80;86.50;;;;;;5052345;28;20041;-78
2023/08/15 00:41:00;;;;;;;8.80;5.22;;;23.80;87.90;;;;;;5037026;28;20077;-79
2023/08/15 00:43:29;;;;;;;8.77;5.28;;;23.90;87.30;;;;;;5055039;28;20033;-80
2023/08/15 00:46:02;;;;;;;11.43;6.10;;;23.80;87.40;;;;;;5036825;28;20136;-77
2023/08/15 00:48:31;;;;;;;9.75;5.10;;;23.80;87.90;;;;;;5045264;28;20029;-78
2023/08/15 00:51:02;;;;;;;11.27;5.70;;;23.80;88.20;;;;;;5045423;28;20049;-79
2023/08/15 00:53:32;;;;;;;8.35;5.10;;;23.80;88.80;;;;;;5051439;28;20045;-79
2023/08/15 00:56:18;;;;;;;7.57;4.82;;;23.60;89.00;;;;;;5050784;28;20473;-80
2023/08/15 00:58:46;;;;;;;11.80;5.63;;;23.90;88.20;;;;;;5045891;28;20065;-77
2023/08/15 01:01:21;;;;;;;6.80;4.70;;;24.10;87.20;;;;;;5044020;28;20037;-77
2023/08/15 01:03:49;;;;;;;8.20;4.95;;;24.20;87.50;;;;;;5034820;28;20041;-77
2023/08/15 01:06:17;;;;;;;7.25;4.78;;;24.30;86.50;;;;;;5027751;28;20140;-78
2023/08/15 01:08:48;;;;;;;9.20;4.80;;;24.40;86.80;;;;;;5053335;28;20438;-79
2023/08/15 01:11:16;;;;;;;7.35;4.50;;;24.40;86.40;;;;;;5051009;28;20068;-80
2023/08/15 01:13:59;;;;;;;7.18;4.70;;;24.40;87.20;;;;;;5035748;28;20075;-78
2023/08/15 01:16:37;;;;;;;8.77;4.95;;;24.30;87.30;;;;;;5056558;28;20130;-79
2023/08/15 01:19:18;;;;;;;7.82;4.93;;;24.30;87.70;;;;;;5049974;28;20038;-80
2023/08/15 01:21:48;;;;;;;6.88;5.28;;;24.30;87.50;;;;;;5047464;28;20048;-78
2023/08/15 01:24:33;;;;;;;8.35;4.90;;;24.30;88.30;;;;;;5052028;28;20398;-78
2023/08/15 01:27:01;;;;;;;6.80;4.60;;;24.20;88.10;;;;;;5052848;28;20036;-78
2023/08/15 01:29:28;;;;;;;6.45;4.63;;;24.10;87.90;;;;;;5037519;28;20391;-80
2023/08/15 01:32:22;;;;;;;6.95;4.45;;;23.80;88.20;;;;;;5046009;28;20054;-79
2023/08/15 01:35:01;;;;;;;7.28;4.00;;;23.70;89.20;;;;;;5035019;28;20045;-78
2023/08/15 01:37:33;;;;;;;7.50;5.03;;;23.90;89.80;;;;;;5032232;28;20180;-79
2023/08/15 01:40:03;;;;;;;8.50;5.15;;;24.00;89.80;;;;;;5052257;28;20045;-77
2023/08/15 01:42:32;;;;;;;8.95;5.40;;;24.20;89.00;;;;;;5049839;28;20045;-76
2023/08/15 01:45:01;;;;;;;7.38;4.63;;;24.30;89.20;;;;;;5056868;28;20075;-78
2023/08/15 01:47:32;;;;;;;8.55;5.18;;;24.20;88.80;;;;;;5054595;28;20037;-78
2023/08/15 01:50:17;;;;;;;9.18;5.60;;;24.10;89.70;;;;;;5057950;28;20074;-77
2023/08/15 01:52:45;;;;;;;9.00;5.47;;;24.20;90.30;;;;;;5053992;28;20087;-78
2023/08/15 01:55:15;;;;;;;9.55;5.18;;;24.10;90.70;;;;;;5050998;28;20035;-80
2023/08/15 01:57:42;;;;;;;10.43;5.72;;;24.00;90.80;;;;;;5057008;28;20047;-81
2023/08/15 02:00:10;;;;;;;10.60;4.95;;;24.00;91.00;;;;;;5071611;28;20041;-81
2023/08/15 02:02:41;;;;;;;9.57;5.80;;;24.00;90.80;;;;;;5055435;28;20126;-78
2023/08/15 02:05:09;;;;;;;11.90;5.55;;;24.00;91.20;;;;;;5055836;28;20041;-78
2023/08/15 02:07:37;;;;;;;10.90;5.40;;;23.90;91.80;;;;;;5053664;28;20481;-79
2023/08/15 02:10:04;;;;;;;9.70;5.63;;;23.90;92.10;;;;;;5054873;28;20076;-78
2023/08/15 02:12:49;;;;;;;9.73;5.90;;;23.80;92.40;;;;;;5055238;28;20037;-79
2023/08/15 02:15:16;;;;;;;11.18;6.45;;;23.80;92.50;;;;;;5045419;28;20044;-78
2023/08/15 02:17:44;;;;;;;10.57;5.63;;;23.70;92.70;;;;;;5055117;28;20045;-79
2023/08/15 02:20:11;;;;;;;9.93;6.00;;;23.60;92.80;;;;;;5054352;28;20076;-79
2023/08/15 02:22:39;;;;;;;8.98;5.60;;;23.60;93.10;;;;;;5055672;28;20124;-78
2023/08/15 02:25:06;;;;;;;10.65;5.55;;;23.60;93.20;;;;;;5056642;28;20065;-80
2023/08/15 02:27:34;;;;;;;9.20;4.95;;;23.80;92.80;;;;;;5056722;28;20526;-80
2023/08/15 02:30:04;;;;;;;9.77;6.18;;;23.70;92.40;;;;;;5055474;28;20072;-78
2023/08/15 02:32:31;;;;;;;;;;;23.70;92.70;;;;;;5043946;28;20563;-78
2023/08/15 02:34:58;;;;;;;9.23;5.07;;;23.70;92.80;;;;;;5042905;28;19921;-78
2023/08/15 02:37:26;;;;;;;7.95;4.82;;;23.50;92.70;;;;;;5054961;28;20056;-79
2023/08/15 02:39:53;;;;;;;8.48;4.35;;;23.40;93.00;;;;;;5054917;28;20039;-77
2023/08/15 02:42:21;;;;;;;11.07;4.82;;;23.30;92.80;;;;;;5046863;28;20051;-79
2023/08/15 02:44:48;;;;;;;7.57;4.63;;;23.20;93.30;;;;;;5049313;28;20466;-81
2023/08/15 02:47:33;;;;;;;9.02;4.47;;;23.00;93.40;;;;;;5053596;28;20026;-80
2023/08/15 02:50:00;;;;;;;7.70;4.53;;;23.10;93.70;;;;;;5056130;28;20037;-78
2023/08/15 02:52:28;;;;;;;9.77;4.30;;;23.10;93.90;;;;;;5054098;28;20047;-79
2023/08/15 02:54:55;;;;;;;7.25;4.75;;;23.10;94.00;;;;;;5055854;28;20048;-79
2023/08/15 02:57:23;;;;;;;9.90;4.93;;;23.00;94.00;;;;;;5055767;28;20128;-79
2023/08/15 02:59:50;;;;;;;9.73;4.53;;;23.00;94.40;;;;;;5051387;28;20049;-78
2023/08/15 03:02:17;;;;;;;6.80;4.82;;;23.10;94.10;;;;;;5055801;28;20055;-78
2023/08/15 03:04:45;;;;;;;7.38;4.18;;;23.00;94.50;;;;;;5054235;28;20044;-79
2023/08/15 03:07:12;;;;;;;7.45;4.50;;;23.10;94.60;;;;;;5054447;28;20045;-79
2023/08/15 03:09:39;;;;;;;7.05;4.70;;;23.00;94.30;;;;;;5052458;28;20072;-78
2023/08/15 03:12:07;;;;;;;7.32;4.75;;;23.00;94.50;;;;;;5039487;28;20081;-79
2023/08/15 03:14:35;;;;;;;9.65;5.05;;;23.00;94.40;;;;;;5052760;28;20049;-78
2023/08/15 03:17:07;;;;;;;;;;;23.00;94.60;;;;;;5054023;28;20120;-79
2023/08/15 03:19:34;;;;;;;8.60;4.88;;;22.90;94.60;;;;;;5036105;28;20306;-81
2023/08/15 03:22:02;;;;;;;7.72;4.93;;;22.90;94.90;;;;;;5051041;28;20410;-81
2023/08/15 03:24:32;;;;;;;6.53;4.63;;;22.80;94.80;;;;;;5053911;28;20484;-80
2023/08/15 03:26:59;;;;;;;8.50;4.72;;;22.90;94.90;;;;;;5054809;28;20565;-80
2023/08/15 03:29:30;;;;;;;8.02;4.90;;;23.10;94.60;;;;;;5024458;28;20045;-79
2023/08/15 03:31:58;;;;;;;7.68;4.80;;;23.00;94.60;;;;;;5050656;28;20140;-78
2023/08/15 03:34:43;;;;;;;7.40;5.22;;;22.90;94.60;;;;;;5052782;28;20398;-77
2023/08/15 03:37:10;;;;;;;6.95;4.80;;;22.90;94.80;;;;;;5052793;28;20044;-78
2023/08/15 03:39:38;;;;;;;8.02;4.93;;;22.90;95.00;;;;;;5053742;28;20091;-77
2023/08/15 03:42:05;;;;;;;5.93;4.60;;;23.00;95.20;;;;;;5037586;28;20049;-77
2023/08/15 03:44:32;;;;;;;13.57;5.00;;;23.00;95.20;;;;;;5044225;28;20044;-78
2023/08/15 03:47:00;;;;;;;7.00;4.47;;;23.00;95.20;;;;;;5052644;28;20084;-78
2023/08/15 03:49:27;;;;;;;7.38;4.60;;;23.00;96.00;;;;;;5034207;28;20125;-77
2023/08/15 03:51:54;;;;;;;10.07;4.90;;;23.00;95.50;;;;;;5042605;28;20044;-78
2023/08/15 03:54:23;;;;;;;6.97;5.07;;;22.90;95.40;;;;;;5017792;28;20047;-78
2023/08/15 03:56:50;;;;;;;7.93;5.22;;;22.90;95.40;;;;;;5053336;28;20428;-78
2023/08/15 03:59:18;;;;;;;6.50;4.57;;;22.90;95.80;;;;;;5052758;28;20057;-76
2023/08/15 04:01:45;;;;;;;7.90;4.57;;;23.10;95.70;;;;;;5051690;28;20116;-78
2023/08/15 04:04:12;;;;;;;7.53;4.55;;;23.20;95.50;;;;;;5051721;28;20389;-79
2023/08/15 04:06:39;;;;;;;7.97;4.78;;;23.20;95.30;;;;;;5052402;28;20047;-80
2023/08/15 04:09:07;;;;;;;7.65;4.53;;;23.20;95.30;;;;;;5034973;28;20043;-78
2023/08/15 04:11:34;;;;;;;8.90;4.63;;;23.10;95.50;;;;;;5051205;28;20037;-79
2023/08/15 04:14:01;;;;;;;7.38;4.70;;;23.20;95.70;;;;;;5036162;28;20451;-77
2023/08/15 04:16:29;;;;;;;8.75;5.32;;;23.20;95.60;;;;;;5050092;28;20108;-79
2023/08/15 04:18:56;;;;;;;7.45;4.82;;;23.20;95.60;;;;;;5050747;28;20061;-77
2023/08/15 04:21:24;;;;;;;7.93;4.90;;;23.30;95.60;;;;;;5052105;28;20028;-79
2023/08/15 04:23:51;;;;;;;8.50;5.05;;;23.30;95.60;;;;;;5035456;28;20041;-78
2023/08/15 04:26:18;;;;;;;7.50;4.88;;;23.30;95.30;;;;;;5047775;28;20048;-78
2023/08/15 04:28:46;;;;;;;8.52;5.10;;;23.20;95.60;;;;;;5052705;28;20120;-78
2023/08/15 04:31:14;;;;;;;10.25;5.85;;;23.20;96.50;;;;;;5051013;28;20127;-76
2023/08/15 04:33:41;;;;;;;10.65;5.10;;;23.20;96.70;;;;;;5050896;28;20094;-78
2023/08/15 04:36:08;;;;;;;10.70;6.60;;;23.30;96.90;;;;;;5028102;28;20452;-79
2023/08/15 04:38:36;;;;;;;11.80;6.88;;;23.30;97.30;;;;;;5053547;28;20124;-78
2023/08/15 04:41:05;;;;;;;13.57;6.05;;;23.30;97.50;;;;;;5051863;28;20565;-77
2023/08/15 04:43:33;;;;;;;9.73;5.93;;;23.30;97.40;;;;;;5052136;28;20044;-77
2023/08/15 04:46:00;;;;;;;10.60;6.38;;;23.30;97.70;;;;;;5036847;28;20144;-79
2023/08/15 04:48:28;;;;;;;9.30;5.53;;;23.30;97.90;;;;;;5049196;28;20241;-80
2023/08/15 04:51:02;;;;;;;10.00;5.70;;;23.10;97.30;;;;;;5059334;28;20111;-80
2023/08/15 04:53:33;;;;;;;10.30;5.30;;;23.30;97.80;;;;;;5051741;28;20045;-77
2023/08/15 04:56:01;;;;;;;9.15;5.00;;;23.20;97.60;;;;;;5050280;28;20048;-80
2023/08/15 04:58:31;;;;;;;9.05;5.68;;;23.20;98.10;;;;;;5030159;28;20041;-79
2023/08/15 05:00:59;;;;;;;11.20;5.93;;;23.20;98.10;;;;;;5050339;28;20033;-78
2023/08/15 05:03:26;;;;;;;10.45;6.32;;;23.10;98.10;;;;;;5052577;28;20045;-79
2023/08/15 05:05:53;;;;;;;8.88;4.75;;;22.90;97.90;;;;;;5032190;28;20073;-78
2023/08/15 05:08:21;;;;;;;9.20;5.68;;;22.90;98.10;;;;;;5052637;28;20060;-78
2023/08/15 05:10:49;;;;;;;8.23;5.55;;;23.00;98.10;;;;;;5052175;28;20424;-79
2023/08/15 05:13:18;;;;;;;9.50;5.38;;;23.10;98.40;;;;;;5050544;28;20068;-78
2023/08/15 05:15:48;;;;;;;11.77;6.32;;;23.20;98.30;;;;;;5052563;28;20056;-79
2023/08/15 05:18:16;;;;;;;10.13;5.28;;;23.10;98.30;;;;;;5038040;28;20049;-79
2023/08/15 05:21:01;;;;;;;9.65;5.70;;;23.10;98.10;;;;;;5032286;28;20022;-79
2023/08/15 05:23:28;;;;;;;11.50;5.70;;;23.10;98.20;;;;;;5048146;28;20053;-77
2023/08/15 05:25:55;;;;;;;12.77;5.60;;;23.10;98.10;;;;;;5053209;28;20041;-77
2023/08/15 05:28:23;;;;;;;8.55;5.50;;;23.10;98.40;;;;;;5043907;28;20057;-79
2023/08/15 05:30:50;;;;;;;10.80;6.00;;;23.10;98.30;;;;;;5032801;28;20069;-79
2023/08/15 05:33:18;;;;;;;10.07;5.32;;;23.20;98.40;;;;;;5030744;28;20053;-80
2023/08/15 05:35:46;;;;;;;7.22;5.35;;;23.20;98.60;;;;;;5037279;28;20045;-79
2023/08/15 05:38:13;;;;;;;10.48;5.95;;;23.10;98.80;;;;;;5036429;28;20143;-79
2023/08/15 05:40:41;;;;;;;10.07;5.72;;;23.30;98.90;;;;;;5055628;28;20037;-79
2023/08/15 05:43:09;;;;;;;9.70;5.55;;;23.50;98.80;;;;;;5054344;28;20470;-79
2023/08/15 05:45:36;;;;;;;18.77;5.72;;;23.60;98.90;;;;;;5052847;28;20044;-80
2023/08/15 05:48:04;;;;;;;11.75;5.78;;;23.50;98.90;;;;;;5021833;28;20445;-80
2023/08/15 05:50:32;;;;;;;10.00;5.50;;;23.50;99.10;;;;;;5054814;28;20086;-79
2023/08/15 05:52:59;;;;;;;12.82;5.22;;;23.70;99.00;;;;;;5045379;28;20048;-81
2023/08/15 05:55:27;;;;;;;10.98;5.97;;;23.70;98.80;;;;;;5046154;28;20076;-79
2023/08/15 05:57:59;;;;;;;7.95;5.32;;;23.80;98.40;;;;;;5020473;28;20135;-78
2023/08/15 06:00:27;;;;;;;12.43;6.30;;;23.90;98.20;;;;;;5048333;28;20490;-76
2023/08/15 06:02:58;;;;;;;9.07;5.50;;;23.80;98.20;;;;;;5038540;28;20044;-76
2023/08/15 06:05:30;;;;;;;9.95;5.53;;;23.90;98.40;;;;;;5054207;28;20040;-76
2023/08/15 06:08:02;;;;;;;9.02;5.55;;;24.10;98.30;;;;;;5053618;28;20037;-80
2023/08/15 06:10:31;;;;;;;8.85;5.65;;;24.20;98.20;;;;;;5047255;28;20450;-79
2023/08/15 06:12:59;;;;;;;9.98;5.22;;;24.30;98.40;;;;;;5053365;28;20068;-78
2023/08/15 06:15:26;;;;;;;12.93;5.78;;;24.30;98.10;;;;;;5051135;28;20564;-76
2023/08/15 06:17:53;;;;;;;13.48;6.10;;;24.20;98.00;;;;;;5055928;28;20048;-78
2023/08/15 06:20:22;;;;;;;11.25;5.93;;;24.40;98.30;;;;;;5056958;28;20099;-80
2023/08/15 06:22:49;;;;;;;12.27;5.85;;;24.40;98.20;;;;;;5047724;28;20413;-79
2023/08/15 06:25:17;;;;;;;12.63;6.60;;;24.60;97.70;;;;;;5036171;28;20044;-77
2023/08/15 06:27:45;;;;;;;13.82;6.13;;;24.60;97.70;;;;;;5055171;28;20037;-78
2023/08/15 06:30:13;;;;;;;35.47;23.95;;;24.70;97.50;;;;;;5054219;28;20069;-80
2023/08/15 06:32:41;;;;;;;44.60;29.00;;;24.70;96.50;;;;;;5060321;28;20051;-80
2023/08/15 06:35:09;;;;;;;17.15;11.95;;;24.70;95.90;;;;;;5049610;28;20055;-80
2023/08/15 06:37:36;;;;;;;40.55;26.52;;;24.60;95.70;;;;;;5062653;28;20100;-80
2023/08/15 06:40:05;;;;;;;11.95;6.93;;;24.80;95.60;;;;;;5045994;28;20303;-79
2023/08/15 06:42:33;;;;;;;11.40;6.90;;;24.80;95.60;;;;;;5062743;28;20032;-78
2023/08/15 06:45:11;;;;;;;11.82;7.22;;;24.80;95.10;;;;;;5077003;28;20051;-75
2023/08/15 06:47:39;;;;;;;13.55;8.05;;;24.90;95.30;;;;;;5075512;28;20075;-75
2023/08/15 06:50:08;;;;;;;41.10;31.42;;;25.00;94.80;;;;;;5058877;28;20047;-75
2023/08/15 06:52:35;;;;;;;20.08;13.52;;;25.10;95.00;;;;;;5073792;28;20398;-78
2023/08/15 06:55:06;;;;;;;11.63;5.95;;;25.40;94.50;;;;;;5071671;28;20098;-77
2023/08/15 06:57:34;;;;;;;10.23;5.20;;;25.50;92.60;;;;;;5076488;28;20501;-75
2023/08/15 07:00:02;;;;;;;11.32;6.50;;;25.50;92.70;;;;;;5074251;28;20040;-78
2023/08/15 07:02:31;;;;;;;15.45;9.50;;;25.20;93.30;;;;;;5058510;28;20044;-75
2023/08/15 07:04:59;;;;;;;7.53;4.80;;;25.00;92.10;;;;;;5050604;28;20036;-80
2023/08/15 07:07:29;;;;;;;8.68;4.95;;;25.00;92.30;;;;;;5031327;28;20072;-78
2023/08/15 07:10:07;;;;;;;11.00;4.75;;;25.20;91.70;;;;;;5043468;28;20052;-79
2023/08/15 07:12:35;;;;;;;10.02;4.78;;;25.40;91.60;;;;;;5063070;28;20058;-81
2023/08/15 07:15:03;;;;;;;7.53;4.65;;;25.40;90.30;;;;;;5078981;28;20071;-77
2023/08/15 07:17:41;;;;;;;10.20;4.03;;;25.50;89.40;;;;;;5077560;28;20090;-80
2023/08/15 07:20:14;;;;;;;6.43;4.25;;;25.60;89.30;;;;;;5080620;28;20048;-79
2023/08/15 07:22:42;;;;;;;10.43;4.38;;;25.60;88.70;;;;;;5062127;28;20033;-81
2023/08/15 07:25:09;;;;;;;9.07;4.35;;;25.40;88.90;;;;;;5032934;28;20070;-75
2023/08/15 07:27:37;;;;;;;10.25;4.25;;;25.50;89.00;;;;;;5084313;28;20047;-81
2023/08/15 07:30:11;;;;;;;8.73;4.47;;;25.80;89.20;;;;;;5041588;28;20079;-82
2023/08/15 07:32:39;;;;;;;9.05;4.60;;;25.90;89.30;;;;;;5065789;28;20052;-79
2023/08/15 07:35:07;;;;;;;9.50;4.32;;;26.00;88.70;;;;;;5060615;28;20075;-77
2023/08/15 07:37:35;;;;;;;13.05;4.88;;;26.10;90.30;;;;;;5078908;28;20036;-80
2023/08/15 07:40:09;;;;;;;9.52;4.43;;;26.30;89.90;;;;;;5060404;28;20048;-79
2023/08/15 07:42:37;;;;;;;11.15;4.15;;;26.30;88.50;;;;;;5055879;28;20489;-77
2023/08/15 07:45:07;;;;;;;9.23;4.40;;;26.30;88.20;;;;;;5069403;28;20094;-77
2023/08/15 07:47:36;;;;;;;7.40;4.22;;;26.30;86.60;;;;;;5058779;28;20056;-77
2023/08/15 07:50:18;;;;;;;7.55;4.38;;;26.30;87.10;;;;;;5049562;28;20045;-80
2023/08/15 07:52:49;;;;;;;9.35;4.78;;;26.20;86.30;;;;;;5054939;28;20060;-78
2023/08/15 07:55:16;;;;;;;7.53;4.13;;;26.10;87.70;;;;;;5066656;28;20048;-80
2023/08/15 07:57:44;;;;;;;9.43;4.72;;;26.30;86.80;;;;;;5080517;28;20052;-79
2023/08/15 08:00:13;;;;;;;8.65;4.32;;;26.30;85.70;;;;;;5069381;28;20051;-77
2023/08/15 08:02:44;;;;;;;7.43;4.55;;;26.50;86.70;;;;;;5081983;28;20045;-78
2023/08/15 08:05:15;;;;;;;8.32;4.05;;;26.50;85.10;;;;;;5062237;28;20052;-77
2023/08/15 08:07:47;;;;;;;7.80;4.38;;;26.50;84.40;;;;;;5060610;28;20708;-77
2023/08/15 08:10:15;;;;;;;7.28;3.88;;;26.40;84.20;;;;;;5061643;28;20064;-77
2023/08/15 08:12:48;;;;;;;10.18;4.20;;;26.40;82.80;;;;;;5051185;28;20033;-77
2023/08/15 08:15:15;;;;;;;12.65;7.32;;;26.50;82.80;;;;;;5047761;28;20450;-77
2023/08/15 08:17:43;;;;;;;12.30;7.00;;;26.70;81.40;;;;;;5081673;28;20051;-77
2023/08/15 08:20:15;;;;;;;10.48;5.60;;;26.80;82.50;;;;;;5059970;28;20044;-78
2023/08/15 08:22:43;;;;;;;8.60;4.68;;;26.80;81.90;;;;;;5054455;28;20112;-73
2023/08/15 08:25:19;;;;;;;7.13;4.00;;;26.80;80.90;;;;;;5079129;28;20435;-76
2023/08/15 08:27:46;;;;;;;10.38;5.32;;;26.90;80.10;;;;;;5069025;28;20036;-80
2023/08/15 08:30:21;;;;;;;16.45;11.70;;;27.00;78.70;;;;;;5076566;28;20032;-76
2023/08/15 08:32:53;;;;;;;13.60;9.35;;;27.00;77.90;;;;;;5077603;28;20060;-78
2023/08/15 08:35:20;;;;;;;11.30;6.18;;;26.90;79.20;;;;;;5062594;28;20045;-77
2023/08/15 08:37:48;;;;;;;7.85;4.35;;;27.10;79.10;;;;;;5081068;28;20060;-80
2023/08/15 08:40:18;;;;;;;5.88;3.85;;;27.20;78.20;;;;;;5077073;28;20041;-77
2023/08/15 08:42:46;;;;;;;6.20;3.75;;;27.10;78.30;;;;;;5073417;28;20040;-79
2023/08/15 08:45:14;;;;;;;9.70;4.15;;;27.10;78.10;;;;;;5077111;28;20477;-78
2023/08/15 08:47:42;;;;;;;8.30;4.00;;;27.10;79.20;;;;;;5052061;28;20494;-79
2023/08/15 08:50:10;;;;;;;8.13;3.90;;;27.10;78.30;;;;;;5082704;28;20040;-78
2023/08/15 08:52:48;;;;;;;7.53;4.30;;;27.10;78.70;;;;;;5064543;28;20047;-78
2023/08/15 08:55:21;;;;;;;9.27;4.72;;;27.00;77.20;;;;;;5065771;28;20047;-75
2023/08/15 08:57:58;;;;;;;5.88;3.78;;;26.90;78.20;;;;;;5062387;28;20051;-76
2023/08/15 09:00:31;;;;;;;7.93;3.80;;;26.80;77.40;;;;;;5070374;28;20075;-80
2023/08/15 09:03:00;;;;;;;8.80;4.63;;;26.80;78.80;;;;;;5066678;28;20453;-80
2023/08/15 09:05:30;;;;;;;20.80;13.38;;;26.80;78.10;;;;;;5058701;28;20052;-76
2023/08/15 09:07:58;;;;;;;14.48;8.90;;;26.80;77.70;;;;;;5065817;28;20390;-75
2023/08/15 09:10:25;;;;;;;13.45;4.95;;;26.90;78.20;;;;;;5073216;28;20036;-75
2023/08/15 09:13:00;;;;;;;11.13;7.28;;;26.90;76.40;;;;;;5075023;28;20481;-76
2023/08/15 09:15:28;;;;;;;8.93;5.88;;;27.00;77.40;;;;;;5071226;28;20128;-77
2023/08/15 09:18:04;;;;;;;7.97;5.13;;;27.10;78.50;;;;;;5059495;28;20052;-78
2023/08/15 09:20:34;;;;;;;7.38;4.35;;;27.20;81.10;;;;;;5083740;28;20067;-78
2023/08/15 09:23:22;;;;;;;6.03;4.07;;;27.20;79.40;;;;;;5069026;28;20045;-77
2023/08/15 09:26:33;;;;;;;8.00;4.03;;;27.30;78.80;;;;;;5054842;28;20413;-80
2023/08/15 09:29:03;;;;;;;8.73;4.80;;;27.30;80.60;;;;;;5049226;28;20052;-78
2023/08/15 09:31:40;;;;;;;7.25;4.35;;;27.30;79.40;;;;;;5054731;28;20102;-77
2023/08/15 09:34:10;;;;;;;7.38;3.78;;;27.10;79.90;;;;;;5070984;28;20044;-78
2023/08/15 09:36:37;;;;;;;;;;;27.20;77.50;;;;;;5073226;28;20036;-78
2023/08/15 09:39:08;;;;;;;6.85;4.50;;;27.20;78.60;;;;;;5069352;28;19951;-77
2023/08/15 09:41:42;;;;;;;7.72;4.07;;;27.40;78.30;;;;;;5069129;28;20029;-79
2023/08/15 09:44:10;;;;;;;22.70;14.73;;;27.50;76.90;;;;;;5053366;28;20036;-75
2023/08/15 09:46:38;;;;;;;45.78;30.60;;;27.50;80.00;;;;;;5064862;28;20036;-77
2023/08/15 09:49:05;;;;;;;28.38;19.65;;;27.70;79.50;;;;;;5070013;28;20041;-78
2023/08/15 09:51:35;;;;;;;10.45;5.95;;;27.80;78.80;;;;;;5069214;28;20045;-76
2023/08/15 09:54:12;;;;;;;11.05;4.72;;;28.00;80.40;;;;;;5070284;28;20086;-77
2023/08/15 09:56:40;;;;;;;7.63;4.05;;;28.20;76.20;;;;;;5052794;28;20047;-75
2023/08/15 09:59:08;;;;;;;6.55;4.05;;;28.20;75.80;;;;;;5078058;28;20032;-78
2023/08/15 10:01:39;;;;;;;9.80;4.20;;;28.50;75.60;;;;;;5075854;28;20128;-77
2023/08/15 10:04:11;;;;;;;7.38;4.43;;;28.50;73.90;;;;;;5057025;28;20127;-77
2023/08/15 10:06:43;;;;;;;6.72;4.43;;;28.30;74.00;;;;;;5066117;28;20055;-77
2023/08/15 10:09:12;;;;;;;7.78;3.65;;;28.30;74.70;;;;;;5067369;28;20048;-80
2023/08/15 10:11:45;;;;;;;6.13;4.13;;;28.30;75.70;;;;;;5077914;28;20109;-80
2023/08/15 10:14:19;;;;;;;7.57;3.55;;;28.40;74.80;;;;;;5078064;28;20036;-77
2023/08/15 10:17:04;;;;;;;7.28;4.30;;;28.60;74.50;;;;;;5071423;28;20045;-78
2023/08/15 10:19:35;;;;;;;6.95;4.00;;;28.80;75.80;;;;;;5060312;28;20106;-75
2023/08/15 10:22:06;;;;;;;9.48;4.30;;;28.80;74.10;;;;;;5073855;28;20079;-76
2023/08/15 10:24:33;;;;;;;8.00;3.75;;;28.90;73.90;;;;;;5057203;28;20428;-78
2023/08/15 10:27:06;;;;;;;7.22;4.18;;;28.90;74.80;;;;;;5081911;28;20048;-78
2023/08/15 10:29:54;;;;;;;8.90;3.45;;;28.90;71.80;;;;;;5068750;28;20485;-77
2023/08/15 10:32:26;;;;;;;6.32;3.65;;;28.70;71.70;;;;;;5077223;28;20049;-76
2023/08/15 10:34:58;;;;;;;6.53;4.13;;;28.80;73.80;;;;;;5064197;28;20041;-77
2023/08/15 10:37:37;;;;;;;57.67;38.92;;;29.00;70.80;;;;;;5065334;28;20029;-77
2023/08/15 10:40:15;;;;;;;120.82;84.80;;;29.20;72.40;;;;;;5084443;28;20048;-78
2023/08/15 10:43:15;;;;;;;54.97;42.00;;;29.40;72.30;;;;;;5066237;28;20454;-77
2023/08/15 10:45:52;;;;;;;8.68;6.47;;;29.60;75.40;;;;;;5044678;28;20040;-78
2023/08/15 10:48:47;;;;;;;10.30;4.90;;;29.90;71.10;;;;;;5072635;28;20040;-77
2023/08/15 10:51:35;;;;;;;7.43;4.05;;;30.10;70.50;;;;;;5024503;28;20048;-78
2023/08/15 10:54:11;;;;;;;6.30;3.78;;;30.40;68.20;;;;;;5054202;28;20459;-76
2023/08/15 10:56:39;;;;;;;7.03;3.50;;;30.10;68.70;;;;;;5076103;28;20037;-77
2023/08/15 10:59:13;;;;;;;6.82;3.67;;;30.50;69.30;;;;;;5070505;28;20033;-77
2023/08/15 11:01:47;;;;;;;7.05;3.90;;;30.80;69.30;;;;;;5078915;28;20051;-78
2023/08/15 11:04:17;;;;;;;7.72;4.40;;;30.70;73.10;;;;;;5055543;28;20045;-79
2023/08/15 11:06:48;;;;;;;8.70;4.35;;;30.20;69.20;;;;;;5048639;28;20036;-77
2023/08/15 11:09:16;;;;;;;;;;;29.90;71.50;;;;;;5039630;28;20036;-77
2023/08/15 11:11:44;;;;;;;6.82;4.32;;;29.80;75.40;;;;;;5066115;28;20368;-76
2023/08/15 11:14:17;;;;;;;6.40;3.92;;;29.70;71.50;;;;;;5059121;28;20426;-78
2023/08/15 11:16:46;;;;;;;9.18;4.82;;;29.50;71.70;;;;;;5078614;28;20064;-77
2023/08/15 11:19:17;;;;;;;8.43;4.20;;;29.30;71.10;;;;;;5076169;28;20374;-79
2023/08/15 11:21:46;;;;;;;7.88;4.13;;;29.30;71.70;;;;;;5058711;28;20044;-74
2023/08/15 11:24:14;;;;;;;10.07;4.13;;;29.30;70.40;;;;;;5063804;28;20063;-76
2023/08/15 11:26:41;;;;;;;7.30;4.45;;;29.50;69.90;;;;;;5060858;28;20492;-77
2023/08/15 11:29:12;;;;;;;9.70;6.47;;;30.10;69.50;;;;;;5041529;28;20143;-79
2023/08/15 11:31:41;;;;;;;9.43;5.82;;;30.10;68.60;;;;;;5059020;28;20078;-78
2023/08/15 11:34:11;;;;;;;10.13;5.57;;;30.30;68.10;;;;;;5075579;28;20037;-77
2023/08/15 11:36:39;;;;;;;9.95;6.70;;;30.00;68.30;;;;;;5058967;28;20115;-75
2023/08/15 11:39:14;;;;;;;9.82;7.15;;;29.60;68.20;;;;;;5059254;28;20067;-76
2023/08/15 11:41:43;;;;;;;11.63;7.03;;;29.80;68.90;;;;;;5038560;28;20490;-76
2023/08/15 11:44:12;;;;;;;35.05;28.60;;;30.40;68.90;;;;;;5047144;28;20101;-77
2023/08/15 11:46:42;;;;;;;9.75;6.35;;;30.50;68.40;;;;;;5078632;28;20041;-79
2023/08/15 11:49:31;;;;;;;6.13;4.18;;;30.90;67.90;;;;;;5029283;28;20325;-77
2023/08/15 11:52:13;;;;;;;7.38;4.40;;;30.50;65.60;;;;;;5015031;28;20049;-79
2023/08/15 11:54:46;;;;;;;5.93;3.63;;;30.70;66.60;;;;;;5020983;28;20185;-76
2023/08/15 11:57:13;;;;;;;7.45;4.43;;;30.50;66.20;;;;;;5031359;28;20030;-75
2023/08/15 11:59:43;;;;;;;8.52;4.15;;;30.30;66.70;;;;;;5018006;28;20080;-82
2023/08/15 12:02:12;;;;;;;10.98;5.82;;;30.10;67.10;;;;;;5026506;28;20116;-78
2023/08/15 12:04:40;;;;;;;8.52;5.53;;;30.40;66.90;;;;;;5037535;28;20556;-78
2023/08/15 12:07:14;;;;;;;12.60;4.38;;;30.50;67.30;;;;;;5046468;28;20075;-74
2023/08/15 12:09:47;;;;;;;;;;;30.90;66.30;;;;;;5075970;28;20048;-76
2023/08/15 12:12:21;;;;;;;6.45;3.95;;;30.80;67.00;;;;;;5056651;28;19963;-78
2023/08/15 12:14:50;;;;;;;7.60;3.83;;;31.00;66.80;;;;;;5040439;28;20489;-80
2023/08/15 12:17:21;;;;;;;8.98;4.07;;;31.30;67.10;;;;;;5050616;28;20072;-78
2023/08/15 12:19:51;;;;;;;7.00;4.03;;;31.40;65.60;;;;;;5060342;28;20068;-79
2023/08/15 12:22:23;;;;;;;6.25;3.92;;;31.50;65.70;;;;;;5041437;28;20048;-79
2023/08/15 12:24:53;;;;;;;8.77;4.63;;;31.80;68.70;;;;;;5046088;28;20432;-77
2023/08/15 12:27:38;;;;;;;9.20;4.45;;;32.20;68.40;;;;;;5056214;28;20422;-76
2023/08/15 12:30:08;;;;;;;7.22;4.18;;;32.20;66.80;;;;;;5043510;28;20040;-77
2023/08/15 12:32:42;;;;;;;10.63;4.07;;;31.80;65.00;;;;;;5043330;28;20433;-78
2023/08/15 12:35:10;;;;;;;7.90;3.90;;;31.50;65.10;;;;;;5072235;28;20072;-78
2023/08/15 12:37:39;;;;;;;8.52;4.00;;;30.70;64.20;;;;;;5065685;28;20032;-76
2023/08/15 12:40:07;;;;;;;9.35;5.32;;;30.30;66.40;;;;;;5071751;28;20146;-77
2023/08/15 12:42:47;;;;;;;29.67;20.30;;;30.20;68.80;;;;;;5055192;28;20075;-78
2023/08/15 12:45:15;;;;;;;11.40;7.47;;;30.20;66.10;;;;;;5062701;28;20051;-78
2023/08/15 12:47:46;;;;;;;6.10;4.30;;;30.50;66.40;;;;;;5046666;28;20048;-78
2023/08/15 12:50:14;;;;;;;16.90;11.43;;;30.40;65.80;;;;;;5067341;28;20050;-78
2023/08/15 12:52:41;;;;;;;10.82;4.40;;;30.70;66.00;;;;;;5062730;28;20060;-76
2023/08/15 12:55:09;;;;;;;9.23;4.65;;;30.50;66.30;;;;;;5071465;28;20115;-77
2023/08/15 12:57:38;;;;;;;8.75;5.50;;;30.80;66.00;;;;;;5071592;28;20075;-78
2023/08/15 13:00:08;;;;;;;15.68;9.20;;;31.20;67.90;;;;;;5070583;28;20049;-78
2023/08/15 13:02:36;;;;;;;13.18;9.02;;;31.10;66.40;;;;;;5051038;28;20063;-77